createdAt,value
2019-03-28T00:02:00.170Z,1.06
2019-03-28T00:04:33.947Z,1.13
2019-03-28T00:07:08.853Z,0.93
2019-03-28T00:09:42.840Z,1.21
2019-03-28T00:12:16.871Z,0.80
2019-03-28T00:14:50.441Z,0.96
2019-03-28T00:17:23.931Z,1.13
2019-03-28T00:19:57.497Z,1.06
2019-03-28T00:22:31.013Z,1.42
2019-03-28T00:25:04.476Z,1.88
2019-03-28T00:27:38.266Z,1.98
2019-03-28T00:30:12.568Z,2.21
2019-03-28T00:32:46.283Z,2.47
2019-03-28T00:35:25.717Z,2.63
2019-03-28T00:38:01.450Z,2.80
2019-03-28T00:40:34.944Z,2.76
2019-03-28T00:43:08.703Z,2.78
2019-03-28T00:45:44.470Z,2.53
2019-03-28T00:48:16.931Z,2.60
2019-03-28T00:50:50.529Z,2.65
2019-03-28T00:53:24.247Z,2.42
2019-03-28T00:55:58.116Z,2.77
2019-03-28T00:58:31.708Z,2.65
2019-03-28T01:01:05.506Z,2.46
2019-03-28T01:03:39.356Z,2.62
2019-03-28T01:06:13.009Z,2.93
2019-03-28T01:08:46.690Z,2.77
2019-03-28T01:11:22.552Z,2.85
2019-03-28T01:13:57.649Z,2.83
2019-03-28T01:16:31.199Z,3.09
2019-03-28T01:19:04.514Z,3.23
2019-03-28T01:21:40.086Z,3.76
2019-03-28T01:24:15.708Z,3.66
2019-03-28T01:27:08.999Z,3.64
2019-03-28T01:29:43.092Z,3.61
2019-03-28T01:32:17.215Z,4.11
2019-03-28T01:34:51.166Z,4.14
2019-03-28T01:37:25.081Z,4.48
2019-03-28T01:40:00.853Z,4.43
2019-03-28T01:42:34.840Z,4.38
2019-03-28T01:45:11.058Z,4.45
2019-03-28T01:47:45.333Z,4.70
2019-03-28T01:50:19.546Z,5.15
2019-03-28T01:52:53.283Z,5.05
2019-03-28T01:55:27.363Z,5.34
2019-03-28T01:58:03.060Z,5.18
2019-03-28T02:00:38.608Z,5.53
2019-03-28T02:03:16.475Z,5.64
2019-03-28T02:05:50.478Z,5.37
2019-03-28T02:08:25.109Z,5.92
2019-03-28T02:10:58.966Z,6.06
2019-03-28T02:13:32.722Z,5.60
2019-03-28T02:16:06.935Z,5.43
2019-03-28T02:18:41.082Z,5.43
2019-03-28T02:21:17.111Z,5.73
2019-03-28T02:23:50.820Z,6.20
2019-03-28T02:26:24.538Z,6.45
2019-03-28T02:28:59.569Z,6.57
2019-03-28T02:31:33.263Z,6.71
2019-03-28T02:34:08.397Z,6.46
2019-03-28T02:36:42.333Z,6.34
2019-03-28T02:39:16.879Z,5.48
2019-03-28T02:41:50.714Z,5.96
2019-03-28T02:44:24.356Z,6.36
2019-03-28T02:46:58.138Z,6.25
2019-03-28T02:49:31.859Z,6.56
2019-03-28T02:52:05.596Z,6.05
2019-03-28T02:54:40.972Z,6.22
2019-03-28T02:57:15.090Z,6.75
2019-03-28T02:59:48.746Z,5.90
2019-03-28T03:02:22.613Z,6.41
2019-03-28T03:04:56.943Z,6.34
2019-03-28T03:07:32.307Z,6.70
2019-03-28T03:10:09.572Z,6.50
2019-03-28T03:12:43.357Z,6.81
2019-03-28T03:15:17.145Z,6.63
2019-03-28T03:17:52.132Z,6.58
2019-03-28T03:20:27.766Z,6.93
2019-03-28T03:23:01.504Z,6.71
2019-03-28T03:25:35.797Z,6.88
2019-03-28T03:28:09.899Z,6.94
2019-03-28T03:30:43.949Z,6.65
2019-03-28T03:33:17.737Z,7.10
2019-03-28T03:35:53.502Z,6.95
2019-03-28T03:38:27.499Z,7.01
2019-03-28T03:41:01.704Z,7.34
2019-03-28T03:43:35.628Z,7.06
2019-03-28T03:46:09.687Z,6.57
2019-03-28T03:48:43.852Z,6.96
2019-03-28T03:51:17.368Z,7.20
2019-03-28T03:53:52.759Z,7.36
2019-03-28T03:56:26.604Z,6.69
2019-03-28T03:59:00.665Z,7.02
2019-03-28T04:01:36.683Z,7.27
2019-03-28T04:04:11.635Z,6.97
2019-03-28T04:06:51.799Z,7.48
2019-03-28T04:09:26.054Z,7.55
2019-03-28T04:12:03.245Z,7.64
2019-03-28T04:14:36.979Z,7.15
2019-03-28T04:17:12.345Z,7.49
2019-03-28T04:19:46.268Z,7.82
2019-03-28T04:22:20.646Z,7.94
2019-03-28T04:24:54.668Z,7.68
2019-03-28T04:27:28.745Z,7.94
2019-03-28T04:30:02.644Z,7.94
2019-03-28T04:32:36.485Z,8.10
2019-03-28T04:35:10.443Z,8.14
2019-03-28T04:37:44.312Z,8.16
2019-03-28T04:40:18.015Z,8.55
2019-03-28T04:42:52.591Z,8.31
2019-03-28T04:45:27.426Z,8.39
2019-03-28T04:48:01.784Z,8.50
2019-03-28T04:50:35.701Z,8.31
2019-03-28T04:53:10.047Z,8.97
2019-03-28T04:55:44.000Z,8.66
2019-03-28T04:58:21.335Z,8.20
2019-03-28T05:00:53.223Z,8.51
2019-03-28T05:03:26.902Z,8.73
2019-03-28T05:06:02.205Z,8.93
2019-03-28T05:08:35.790Z,8.64
2019-03-28T05:11:09.465Z,8.61
2019-03-28T05:13:46.619Z,8.47
2019-03-28T05:16:20.431Z,8.72
2019-03-28T05:18:54.158Z,8.92
2019-03-28T05:21:28.325Z,9.12
2019-03-28T05:24:02.177Z,8.39
2019-03-28T05:26:36.467Z,8.46
2019-03-28T05:29:10.946Z,8.45
2019-03-28T05:31:46.410Z,8.40
2019-03-28T05:34:20.233Z,8.17
2019-03-28T05:36:53.922Z,7.95
2019-03-28T05:39:27.675Z,8.33
2019-03-28T05:42:01.698Z,8.30
2019-03-28T05:44:37.537Z,8.20
2019-03-28T05:47:11.502Z,7.55
2019-03-28T05:49:47.188Z,8.07
2019-03-28T05:52:21.022Z,8.25
2019-03-28T05:54:57.572Z,8.41
2019-03-28T05:57:31.239Z,8.58
2019-03-28T06:00:06.038Z,8.16
2019-03-28T06:02:39.786Z,8.34
2019-03-28T06:05:14.301Z,7.94
2019-03-28T06:07:48.254Z,8.22
2019-03-28T06:10:22.567Z,8.34
2019-03-28T06:12:56.859Z,8.28
2019-03-28T06:15:31.823Z,8.33
2019-03-28T06:18:05.833Z,8.87
2019-03-28T06:20:39.655Z,9.08
2019-03-28T06:23:13.548Z,9.04
2019-03-28T06:25:47.324Z,8.70
2019-03-28T06:28:20.888Z,8.65
2019-03-28T06:30:55.944Z,8.29
2019-03-28T06:33:30.352Z,8.54
2019-03-28T06:36:04.132Z,8.80
2019-03-28T06:38:38.510Z,8.33
2019-03-28T06:41:12.343Z,8.40
2019-03-28T06:43:46.212Z,8.23
2019-03-28T06:46:19.971Z,10.94
2019-03-28T06:48:55.372Z,17.13
2019-03-28T06:51:31.334Z,14.66
2019-03-28T06:54:15.007Z,11.62
2019-03-28T06:56:48.825Z,9.32
2019-03-28T06:59:22.518Z,8.98
2019-03-28T07:01:56.580Z,8.98
2019-03-28T07:04:30.912Z,8.81
2019-03-28T07:07:05.057Z,8.51
2019-03-28T07:09:39.961Z,7.91
2019-03-28T07:12:13.522Z,8.16
2019-03-28T07:14:47.289Z,8.08
2019-03-28T07:17:22.826Z,8.27
2019-03-28T07:19:56.917Z,8.24
2019-03-28T07:22:31.070Z,7.65
2019-03-28T07:25:04.750Z,7.69
2019-03-28T07:27:38.475Z,8.01
2019-03-28T07:33:06.705Z,8.18
2019-03-28T07:35:42.123Z,8.25
2019-03-28T07:38:16.773Z,8.15
2019-03-28T07:40:51.017Z,8.19
2019-03-28T07:43:25.281Z,8.23
2019-03-28T07:45:59.429Z,7.88
2019-03-28T07:48:33.277Z,7.86
2019-03-28T07:51:06.618Z,7.93
2019-03-28T07:53:40.574Z,8.04
2019-03-28T07:56:14.818Z,7.76
2019-03-28T07:58:49.013Z,7.88
2019-03-28T08:01:23.360Z,8.29
2019-03-28T08:03:57.802Z,8.52
2019-03-28T08:06:32.027Z,8.45
2019-03-28T08:09:09.891Z,8.24
2019-03-28T08:11:44.244Z,8.26
2019-03-28T08:14:20.941Z,8.39
2019-03-28T08:16:56.490Z,8.26
2019-03-28T08:19:32.771Z,8.17
2019-03-28T08:22:08.758Z,7.92
2019-03-28T08:24:44.153Z,8.16
2019-03-28T08:27:19.645Z,7.96
2019-03-28T08:29:57.688Z,7.69
2019-03-28T08:32:30.311Z,7.73
2019-03-28T08:35:04.101Z,7.62
2019-03-28T08:37:39.256Z,7.73
2019-03-28T08:40:15.494Z,7.68
2019-03-28T08:42:50.863Z,7.70
2019-03-28T08:45:25.064Z,7.93
2019-03-28T08:48:01.067Z,7.97
2019-03-28T08:50:34.854Z,7.56
2019-03-28T08:53:08.781Z,7.54
2019-03-28T08:55:43.486Z,7.28
2019-03-28T08:58:18.820Z,6.92
2019-03-28T09:00:54.060Z,6.87
2019-03-28T09:03:29.873Z,6.83
2019-03-28T09:06:05.574Z,6.83
2019-03-28T09:08:39.629Z,6.95
2019-03-28T09:11:14.313Z,6.84
2019-03-28T09:13:49.092Z,6.68
2019-03-28T09:16:24.434Z,6.63
2019-03-28T09:19:00.160Z,6.45
2019-03-28T09:21:35.655Z,6.50
2019-03-28T09:24:09.550Z,6.45
2019-03-28T09:26:44.156Z,6.46
2019-03-28T09:29:18.962Z,6.07
2019-03-28T09:31:53.044Z,6.02
2019-03-28T09:34:28.463Z,5.91
2019-03-28T09:37:03.367Z,5.98
2019-03-28T09:39:38.706Z,6.06
2019-03-28T09:42:12.399Z,6.00
2019-03-28T09:44:46.971Z,5.85
2019-03-28T09:47:21.410Z,5.96
2019-03-28T09:50:03.066Z,5.87
2019-03-28T09:52:37.473Z,5.73
2019-03-28T09:55:11.813Z,5.82
2019-03-28T09:57:46.551Z,5.69
2019-03-28T10:00:21.580Z,5.56
2019-03-28T10:02:56.503Z,5.44
2019-03-28T10:05:32.109Z,5.25
2019-03-28T10:08:07.294Z,5.44
2019-03-28T10:10:42.182Z,5.41
2019-03-28T10:13:17.260Z,5.24
2019-03-28T10:18:46.824Z,5.23
2019-03-28T10:21:25.442Z,5.15
2019-03-28T10:24:00.544Z,5.23
2019-03-28T10:26:35.682Z,5.43
2019-03-28T10:29:10.494Z,5.38
2019-03-28T10:31:47.052Z,5.32
2019-03-28T10:34:25.548Z,5.14
2019-03-28T10:37:01.433Z,5.08
2019-03-28T10:39:36.140Z,5.06
2019-03-28T10:42:17.700Z,4.90
2019-03-28T10:44:53.652Z,5.00
2019-03-28T10:47:30.345Z,5.00
2019-03-28T10:50:07.280Z,4.75
2019-03-28T10:52:43.439Z,4.84
2019-03-28T10:55:21.711Z,4.81
2019-03-28T10:57:59.217Z,4.78
2019-03-28T11:00:36.958Z,4.70
2019-03-28T11:03:12.568Z,4.71
2019-03-28T11:05:50.494Z,4.68
2019-03-28T11:08:28.707Z,4.68
2019-03-28T11:11:02.357Z,4.60
2019-03-28T11:13:37.649Z,4.65
2019-03-28T11:16:15.230Z,4.40
2019-03-28T11:18:52.612Z,4.30
2019-03-28T11:21:28.096Z,4.19
2019-03-28T11:24:05.251Z,4.19
2019-03-28T11:26:42.769Z,4.20
2019-03-28T11:29:18.737Z,4.25
2019-03-28T11:31:55.094Z,4.20
2019-03-28T11:34:30.506Z,4.11
2019-03-28T11:37:11.347Z,4.13
2019-03-28T11:39:44.594Z,3.96
2019-03-28T11:42:23.661Z,4.06
2019-03-28T11:44:59.553Z,4.04
2019-03-28T11:47:41.140Z,4.11
2019-03-28T11:50:18.553Z,4.09
2019-03-28T11:53:04.515Z,4.04
2019-03-28T11:55:48.528Z,4.06
2019-03-28T11:58:22.003Z,4.07
2019-03-28T12:00:57.503Z,4.09
2019-03-28T12:03:39.611Z,3.85
2019-03-28T12:06:15.121Z,3.77
2019-03-28T12:08:55.769Z,3.89
2019-03-28T12:11:29.241Z,3.81
2019-03-28T12:14:06.205Z,3.71
2019-03-28T12:16:48.310Z,3.80
2019-03-28T12:19:24.981Z,3.69
2019-03-28T12:22:05.278Z,3.83
2019-03-28T12:24:42.485Z,3.79
2019-03-28T12:27:20.225Z,3.50
2019-03-28T12:30:01.109Z,3.54
2019-03-28T12:32:37.239Z,3.56
2019-03-28T12:41:02.964Z,3.40
2019-03-28T12:43:39.529Z,3.40
2019-03-28T12:46:18.095Z,3.27
2019-03-28T12:48:53.616Z,3.22
2019-03-28T12:51:31.167Z,3.30
2019-03-28T12:54:09.190Z,3.32
2019-03-28T12:56:50.107Z,3.18
2019-03-28T12:59:27.727Z,3.10
2019-03-28T13:02:05.805Z,3.07
2019-03-28T13:04:41.484Z,3.09
2019-03-28T13:07:17.034Z,3.17
2019-03-28T13:09:52.621Z,3.11
2019-03-28T13:12:34.343Z,2.62
2019-03-28T13:15:10.898Z,2.89
2019-03-28T13:17:46.552Z,2.99
2019-03-28T13:20:27.312Z,3.07
2019-03-28T13:23:04.632Z,2.93
2019-03-28T13:25:42.569Z,2.98
2019-03-28T13:28:23.292Z,2.92
2019-03-28T13:30:59.686Z,2.83
2019-03-28T13:33:37.441Z,2.80
2019-03-28T13:36:13.021Z,2.82
2019-03-28T13:38:53.191Z,2.69
2019-03-28T13:41:28.541Z,2.79
2019-03-28T13:44:03.824Z,2.69
2019-03-28T13:46:42.075Z,2.60
2019-03-28T13:49:18.366Z,2.58
2019-03-28T13:51:58.808Z,2.38
2019-03-28T13:54:35.088Z,2.46
2019-03-28T13:57:10.792Z,2.44
2019-03-28T13:59:47.377Z,2.44
2019-03-28T14:02:22.419Z,2.47
2019-03-28T14:04:59.018Z,2.19
2019-03-28T14:07:35.819Z,1.97
2019-03-28T14:10:13.455Z,1.83
2019-03-28T14:12:47.884Z,1.68
2019-03-28T14:15:25.336Z,1.81
2019-03-28T14:18:01.545Z,1.90
2019-03-28T14:20:36.835Z,1.71
2019-03-28T14:23:10.920Z,1.76
2019-03-28T14:25:46.667Z,1.99
2019-03-28T14:28:22.687Z,1.95
2019-03-28T14:31:00.678Z,2.01
2019-03-28T14:33:34.436Z,1.91
2019-03-28T14:36:08.949Z,1.70
2019-03-28T14:38:43.611Z,1.68
2019-03-28T14:41:18.094Z,1.73
2019-03-28T14:43:53.389Z,1.30
2019-03-28T14:46:29.604Z,1.44
2019-03-28T14:49:05.572Z,1.30
2019-03-28T14:51:40.010Z,1.36
2019-03-28T14:54:15.675Z,1.39
2019-03-28T14:56:51.482Z,1.29
2019-03-28T14:59:32.381Z,1.21
2019-03-28T15:02:03.905Z,1.11
2019-03-28T15:04:39.459Z,1.13
2019-03-28T15:07:13.784Z,0.97
2019-03-28T15:09:49.954Z,1.21
2019-03-28T15:12:29.120Z,1.18
2019-03-28T15:15:03.619Z,1.15
2019-03-28T15:17:38.172Z,0.89
2019-03-28T15:20:12.634Z,0.95
2019-03-28T15:22:47.092Z,1.15
2019-03-28T15:25:23.064Z,1.00
2019-03-28T15:27:57.166Z,0.97
2019-03-28T15:30:31.483Z,0.94
2019-03-28T15:33:05.968Z,0.87
2019-03-28T15:35:39.567Z,0.94
2019-03-28T15:38:15.443Z,0.78
2019-03-28T15:40:49.780Z,0.58
2019-03-28T15:43:26.422Z,0.89
2019-03-28T15:46:01.006Z,0.87
2019-03-28T15:48:35.666Z,0.70
2019-03-28T15:51:12.188Z,0.77
2019-03-28T15:53:46.975Z,0.67
2019-03-28T15:56:23.314Z,0.77
2019-03-28T15:58:59.093Z,0.74
2019-03-28T16:01:33.612Z,0.75
2019-03-28T16:04:11.772Z,0.62
2019-03-28T16:06:47.724Z,0.32
2019-03-28T16:09:23.725Z,0.24
2019-03-28T16:12:02.831Z,0.32
2019-03-28T16:14:34.380Z,0.28
2019-03-28T16:17:08.780Z,-0.01
2019-03-28T16:19:45.163Z,0.10
2019-03-28T16:22:22.369Z,0.31
2019-03-28T16:24:55.094Z,-0.02
2019-03-28T16:27:29.591Z,0.08
2019-03-28T16:30:04.045Z,0.17
2019-03-28T16:32:38.064Z,0.15
2019-03-28T16:35:12.080Z,-0.11
2019-03-28T16:37:46.199Z,0.08
2019-03-28T16:40:20.475Z,0.01
2019-03-28T16:42:55.676Z,-0.09
2019-03-28T16:45:30.084Z,-0.09
2019-03-28T16:48:04.709Z,-0.11
2019-03-28T16:50:38.832Z,-0.24
2019-03-28T16:53:14.914Z,-0.20
2019-03-28T16:55:49.321Z,-0.21
2019-03-28T16:58:23.176Z,-0.21
2019-03-28T17:00:57.006Z,-0.26
2019-03-28T17:03:31.105Z,-0.40
2019-03-28T17:06:07.688Z,-0.47
2019-03-28T17:08:43.945Z,-0.57
2019-03-28T17:11:18.570Z,-0.47
2019-03-28T17:13:54.746Z,-0.53
2019-03-28T17:16:29.682Z,-0.14
2019-03-28T17:19:03.547Z,-0.37
2019-03-28T17:21:38.024Z,-0.51
2019-03-28T17:24:11.836Z,-0.44
2019-03-28T17:26:47.393Z,-0.47
2019-03-28T17:29:23.469Z,-0.35
2019-03-28T17:31:59.632Z,-0.56
2019-03-28T17:34:37.135Z,-0.58
2019-03-28T17:37:10.977Z,-0.72
2019-03-28T17:39:46.140Z,-0.59
2019-03-28T17:42:19.738Z,-0.50
2019-03-28T17:44:53.467Z,-0.64
2019-03-28T17:47:27.112Z,-0.78
2019-03-28T17:50:02.307Z,-0.85
2019-03-28T17:52:35.837Z,-0.85
2019-03-28T17:55:10.439Z,-0.81
2019-03-28T17:57:45.816Z,-0.62
2019-03-28T18:00:19.993Z,-0.72
2019-03-28T18:02:53.986Z,-0.75
2019-03-28T18:05:27.736Z,-0.79
2019-03-28T18:08:03.610Z,-0.74
2019-03-28T18:10:38.483Z,-1.07
2019-03-28T18:13:13.573Z,-1.11
2019-03-28T18:15:48.740Z,-0.96
2019-03-28T18:18:26.267Z,-0.93
2019-03-28T18:21:00.582Z,-1.04
2019-03-28T18:23:34.798Z,-0.94
2019-03-28T18:26:09.554Z,-0.94
2019-03-28T18:28:45.731Z,-1.00
2019-03-28T18:31:19.563Z,-1.12
2019-03-28T18:33:58.329Z,-1.06
2019-03-28T18:36:34.224Z,-1.24
2019-03-28T18:39:08.872Z,-1.27
2019-03-28T18:41:42.580Z,-1.17
2019-03-28T18:44:17.461Z,-1.31
2019-03-28T18:46:52.771Z,-1.32
2019-03-28T18:49:28.705Z,-1.12
2019-03-28T18:52:07.218Z,-1.33
2019-03-28T18:54:40.320Z,-1.22
2019-03-28T18:57:14.845Z,-1.42
2019-03-28T18:59:49.807Z,-1.15
2019-03-28T19:02:23.614Z,-1.32
2019-03-28T19:04:57.473Z,-1.26
2019-03-28T19:07:31.135Z,-1.59
2019-03-28T19:10:05.713Z,-1.48
2019-03-28T19:12:41.089Z,-1.74
2019-03-28T19:15:15.810Z,-1.73
2019-03-28T19:17:49.953Z,-1.47
2019-03-28T19:20:25.469Z,-1.51
2019-03-28T19:22:59.113Z,-1.51
2019-03-28T19:25:35.340Z,-1.39
2019-03-28T19:28:11.435Z,-1.36
2019-03-28T19:30:45.451Z,-1.44
2019-03-28T19:33:19.279Z,-1.62
2019-03-28T19:35:55.857Z,-1.59
2019-03-28T19:38:30.464Z,-1.55
2019-03-28T19:41:04.470Z,-1.55
2019-03-28T19:43:40.133Z,-1.77
2019-03-28T19:46:13.901Z,-1.77
2019-03-28T19:48:47.649Z,-1.81
2019-03-28T19:51:21.215Z,-1.51
2019-03-28T19:53:55.316Z,-1.69
2019-03-28T19:56:29.127Z,-2.04
2019-03-28T19:59:02.740Z,-1.85
2019-03-28T20:01:37.563Z,-1.85
2019-03-28T20:04:11.487Z,-1.82
2019-03-28T20:06:45.029Z,-1.93
2019-03-28T20:09:18.540Z,-1.96
2019-03-28T20:11:52.123Z,-2.09
2019-03-28T20:14:25.980Z,-1.89
2019-03-28T20:16:59.873Z,-1.77
2019-03-28T20:19:33.558Z,-1.91
2019-03-28T20:22:07.078Z,-2.07
2019-03-28T20:24:41.756Z,-2.02
2019-03-28T20:27:15.549Z,-2.12
2019-03-28T20:29:49.309Z,-2.20
2019-03-28T20:32:22.941Z,-2.04
2019-03-28T20:34:56.554Z,-2.14
2019-03-28T20:37:30.194Z,-2.13
2019-03-28T20:40:03.807Z,-1.98
2019-03-28T20:42:37.402Z,-2.25
2019-03-28T20:45:12.681Z,-2.16
2019-03-28T20:47:46.423Z,-2.24
2019-03-28T20:50:20.425Z,-2.40
2019-03-28T20:52:54.310Z,-2.30
2019-03-28T20:55:27.986Z,-2.47
2019-03-28T20:58:02.816Z,-2.21
2019-03-28T21:00:48.056Z,-2.21
2019-03-28T21:03:22.961Z,-2.33
2019-03-28T21:05:56.450Z,-2.45
2019-03-28T21:08:30.338Z,-2.48
2019-03-28T21:11:04.124Z,-2.57
2019-03-28T21:13:38.114Z,-2.61
2019-03-28T21:16:12.135Z,-2.55
2019-03-28T21:18:45.463Z,-2.42
2019-03-28T21:21:19.010Z,-2.46
2019-03-28T21:23:52.726Z,-2.30
2019-03-28T21:26:26.352Z,-2.33
2019-03-28T21:28:59.884Z,-2.38
2019-03-28T21:31:33.627Z,-2.38
2019-03-28T21:34:07.745Z,-2.36
2019-03-28T21:36:42.763Z,-2.60
2019-03-28T21:39:17.107Z,-2.60
2019-03-28T21:41:50.594Z,-2.60
2019-03-28T21:44:24.197Z,-2.62
2019-03-28T21:46:58.767Z,-2.55
2019-03-28T21:49:32.686Z,-2.54
2019-03-28T21:52:07.477Z,-2.80
2019-03-28T21:54:41.802Z,-2.73
2019-03-28T21:57:15.968Z,-2.68
2019-03-28T21:59:49.643Z,-2.59
2019-03-28T22:02:23.109Z,-2.49
2019-03-28T22:04:56.585Z,-2.40
2019-03-28T22:07:30.214Z,-2.54
2019-03-28T22:10:04.226Z,-2.32
2019-03-28T22:12:37.757Z,-2.20
2019-03-28T22:15:11.964Z,-2.16
2019-03-28T22:17:47.257Z,-2.14
2019-03-28T22:20:20.766Z,-1.89
2019-03-28T22:22:55.117Z,-1.70
2019-03-28T22:25:30.401Z,-1.47
2019-03-28T22:28:04.535Z,-1.31
2019-03-28T22:30:38.980Z,-1.02
2019-03-28T22:33:13.557Z,-0.93
2019-03-28T22:35:47.547Z,-0.89
2019-03-28T22:38:21.190Z,-0.72
2019-03-28T22:40:54.991Z,-0.47
2019-03-28T22:43:30.012Z,-0.19
2019-03-28T22:46:05.559Z,-0.01
2019-03-28T22:48:39.909Z,0.19
2019-03-28T22:51:13.595Z,0.45
2019-03-28T22:53:47.207Z,0.38
2019-03-28T22:56:21.747Z,0.48
2019-03-28T22:58:55.455Z,0.83
2019-03-28T23:01:29.445Z,0.88
2019-03-28T23:04:03.259Z,1.52
2019-03-28T23:06:38.091Z,1.62
2019-03-28T23:09:13.184Z,1.92
2019-03-28T23:11:54.676Z,1.85
2019-03-28T23:14:28.707Z,1.98
2019-03-28T23:17:02.387Z,2.26
2019-03-28T23:19:36.283Z,2.54
2019-03-28T23:22:10.118Z,2.82
2019-03-28T23:24:44.181Z,3.12
2019-03-28T23:27:18.658Z,3.31
2019-03-28T23:29:52.732Z,2.96
2019-03-28T23:32:26.583Z,3.17
2019-03-28T23:35:00.924Z,3.43
2019-03-28T23:37:35.072Z,3.59
2019-03-28T23:40:10.209Z,3.67
2019-03-28T23:42:44.556Z,3.46
2019-03-28T23:45:19.159Z,3.10
2019-03-28T23:47:55.176Z,3.23
2019-03-28T23:50:29.541Z,3.32
2019-03-28T23:53:05.536Z,3.16
2019-03-28T23:55:39.474Z,3.29
2019-03-28T23:58:13.311Z,3.23
